createdAt,value
2023-03-23T16:02:24.442Z,2.60
2023-03-23T16:07:27.491Z,2.60
2023-03-23T16:12:30.268Z,2.40
2023-03-23T16:17:33.432Z,2.10
2023-03-23T16:22:36.231Z,2.10
2023-03-23T16:27:40.001Z,2.00
2023-03-23T16:37:50.462Z,2.27
2023-03-23T16:42:53.460Z,2.10
2023-03-23T16:48:01.409Z,2.00
2023-03-23T16:53:05.265Z,2.60
2023-03-23T16:58:16.783Z,2.67
2023-03-23T17:03:21.253Z,2.93
2023-03-23T17:08:24.186Z,3.27
2023-03-23T17:13:28.014Z,3.30
2023-03-23T17:18:31.508Z,3.67
2023-03-23T17:23:34.381Z,3.83
2023-03-23T17:28:37.276Z,4.70
2023-03-23T17:33:40.152Z,4.77
2023-03-23T17:38:43.089Z,4.93
2023-03-23T17:43:46.116Z,4.47
2023-03-23T17:48:48.948Z,4.10
2023-03-23T17:53:51.783Z,3.63
2023-03-23T17:58:54.843Z,3.47
2023-03-23T18:03:57.631Z,3.90
2023-03-23T18:09:00.508Z,4.70
2023-03-23T18:14:03.582Z,4.27
2023-03-23T18:19:06.648Z,4.63
2023-03-23T18:24:09.725Z,4.20
2023-03-23T18:29:12.658Z,5.00
2023-03-23T18:34:15.523Z,4.70
2023-03-23T18:39:18.518Z,4.50
2023-03-23T18:44:21.337Z,4.80
2023-03-23T18:49:24.228Z,4.43
2023-03-23T18:54:28.339Z,4.87
2023-03-23T18:59:33.803Z,4.77
2023-03-23T19:04:36.779Z,5.17
2023-03-23T19:09:41.394Z,5.90
2023-03-23T19:14:44.464Z,5.47
2023-03-23T19:19:47.357Z,5.73
2023-03-23T19:24:50.183Z,6.70
2023-03-23T19:29:53.028Z,6.43
2023-03-23T19:34:56.194Z,6.83
2023-03-23T19:40:02.933Z,6.73
2023-03-23T19:45:17.131Z,8.37
2023-03-23T19:50:20.058Z,8.03
2023-03-23T19:55:24.933Z,7.70
2023-03-23T20:00:28.600Z,8.07
2023-03-23T20:05:31.445Z,7.57
2023-03-23T20:10:35.649Z,7.73
2023-03-23T20:15:38.610Z,7.43
2023-03-23T20:20:41.409Z,6.73
2023-03-23T20:25:44.221Z,6.97
2023-03-23T20:30:48.296Z,6.47
2023-03-23T20:36:11.057Z,6.50
2023-03-23T20:41:18.174Z,4.57
2023-03-23T20:46:23.965Z,5.00
2023-03-23T20:51:26.928Z,4.77
2023-03-23T20:56:30.077Z,5.00
2023-03-23T21:01:35.646Z,4.33
2023-03-23T21:06:38.490Z,4.07
2023-03-23T21:11:42.091Z,4.27
2023-03-23T21:16:45.446Z,3.90
2023-03-23T21:21:56.850Z,4.57
2023-03-23T21:27:02.073Z,4.50
2023-03-23T21:32:08.594Z,4.70
2023-03-23T21:37:12.289Z,3.60
2023-03-23T21:42:15.147Z,4.70
2023-03-23T21:47:18.195Z,4.47
2023-03-23T21:52:21.180Z,3.93
2023-03-23T21:57:24.360Z,4.73
2023-03-23T22:02:30.117Z,4.40
2023-03-23T22:07:34.040Z,4.30
2023-03-23T22:12:39.441Z,3.77
2023-03-23T22:17:43.390Z,4.07
2023-03-23T22:22:47.276Z,3.30
2023-03-23T22:27:51.019Z,3.37
2023-03-23T22:32:54.846Z,2.70
2023-03-23T22:38:03.392Z,3.03
2023-03-23T22:43:09.326Z,3.37
2023-03-23T22:48:14.162Z,2.40
2023-03-23T22:53:19.864Z,2.57
2023-03-23T22:58:28.316Z,3.10
2023-03-23T23:03:38.635Z,2.80
2023-03-23T23:08:43.606Z,2.97
2023-03-23T23:13:52.172Z,3.07
2023-03-23T23:18:58.515Z,3.00
2023-03-23T23:24:07.083Z,2.87
2023-03-23T23:29:12.809Z,3.20
2023-03-23T23:34:18.670Z,3.17
2023-03-23T23:39:27.967Z,2.60
2023-03-23T23:44:34.480Z,2.97
2023-03-23T23:49:41.657Z,2.80
2023-03-23T23:54:48.535Z,3.23
2023-03-23T23:59:53.741Z,3.23
